sensor_id;sensor_type;location;lat;lon;timestamp;P1;durP1;ratioP1;P2;durP2;ratioP2
71947;SDS011;63257;55.082;38.772;2022-09-09T00:03:36;13.77;;;6.47;;
71947;SDS011;63257;55.082;38.772;2022-09-09T00:06:30;11.73;;;5.85;;
71947;SDS011;63257;55.082;38.772;2022-09-09T00:09:04;14.70;;;7.10;;
71947;SDS011;63257;55.082;38.772;2022-09-09T00:11:42;16.20;;;7.55;;
71947;SDS011;63257;55.082;38.772;2022-09-09T00:14:36;15.82;;;7.32;;
71947;SDS011;63257;55.082;38.772;2022-09-09T00:17:31;13.75;;;6.40;;
71947;SDS011;63257;55.082;38.772;2022-09-09T00:20:05;15.73;;;7.50;;
71947;SDS011;63257;55.082;38.772;2022-09-09T00:22:40;15.95;;;6.88;;
71947;SDS011;63257;55.082;38.772;2022-09-09T00:28:33;14.27;;;6.87;;
71947;SDS011;63257;55.082;38.772;2022-09-09T00:31:11;12.90;;;5.88;;
71947;SDS011;63257;55.082;38.772;2022-09-09T00:33:39;12.98;;;6.20;;
71947;SDS011;63257;55.082;38.772;2022-09-09T00:36:15;14.70;;;6.50;;
71947;SDS011;63257;55.082;38.772;2022-09-09T00:38:48;13.32;;;6.82;;
71947;SDS011;63257;55.082;38.772;2022-09-09T00:41:22;10.55;;;4.65;;
71947;SDS011;63257;55.082;38.772;2022-09-09T00:44:02;13.80;;;6.07;;
71947;SDS011;63257;55.082;38.772;2022-09-09T00:46:41;12.20;;;5.53;;
71947;SDS011;63257;55.082;38.772;2022-09-09T00:55:03;12.87;;;5.33;;
71947;SDS011;63257;55.082;38.772;2022-09-09T00:57:38;11.18;;;4.82;;
71947;SDS011;63257;55.082;38.772;2022-09-09T01:00:23;10.68;;;5.13;;
71947;SDS011;63257;55.082;38.772;2022-09-09T01:08:36;11.73;;;5.18;;
71947;SDS011;63257;55.082;38.772;2022-09-09T01:11:22;10.68;;;4.75;;
71947;SDS011;63257;55.082;38.772;2022-09-09T01:14:01;10.18;;;5.18;;
71947;SDS011;63257;55.082;38.772;2022-09-09T01:16:39;10.57;;;4.75;;
71947;SDS011;63257;55.082;38.772;2022-09-09T01:19:07;13.98;;;5.38;;
71947;SDS011;63257;55.082;38.772;2022-09-09T01:21:49;10.23;;;4.50;;
71947;SDS011;63257;55.082;38.772;2022-09-09T01:24:40;10.13;;;4.47;;
71947;SDS011;63257;55.082;38.772;2022-09-09T01:27:22;9.35;;;4.18;;
71947;SDS011;63257;55.082;38.772;2022-09-09T01:29:50;8.90;;;4.40;;
71947;SDS011;63257;55.082;38.772;2022-09-09T01:35:07;9.20;;;4.22;;
71947;SDS011;63257;55.082;38.772;2022-09-09T01:37:37;10.52;;;4.15;;
71947;SDS011;63257;55.082;38.772;2022-09-09T01:40:04;10.23;;;4.50;;
71947;SDS011;63257;55.082;38.772;2022-09-09T01:42:33;11.00;;;4.25;;
71947;SDS011;63257;55.082;38.772;2022-09-09T01:44:59;8.55;;;3.90;;
71947;SDS011;63257;55.082;38.772;2022-09-09T01:47:25;11.10;;;3.90;;
71947;SDS011;63257;55.082;38.772;2022-09-09T01:50:15;9.55;;;4.35;;
71947;SDS011;63257;55.082;38.772;2022-09-09T01:52:43;10.52;;;4.20;;
71947;SDS011;63257;55.082;38.772;2022-09-09T01:55:14;8.73;;;4.00;;
71947;SDS011;63257;55.082;38.772;2022-09-09T01:57:50;8.70;;;4.43;;
71947;SDS011;63257;55.082;38.772;2022-09-09T02:00:20;9.65;;;3.90;;
71947;SDS011;63257;55.082;38.772;2022-09-09T02:05:40;8.88;;;4.00;;
71947;SDS011;63257;55.082;38.772;2022-09-09T02:08:23;9.82;;;4.60;;
71947;SDS011;63257;55.082;38.772;2022-09-09T02:11:17;8.98;;;4.07;;
71947;SDS011;63257;55.082;38.772;2022-09-09T02:14:03;10.55;;;4.40;;
71947;SDS011;63257;55.082;38.772;2022-09-09T02:22:04;9.03;;;4.40;;
71947;SDS011;63257;55.082;38.772;2022-09-09T02:24:33;10.27;;;4.30;;
71947;SDS011;63257;55.082;38.772;2022-09-09T02:27:23;9.20;;;4.13;;
71947;SDS011;63257;55.082;38.772;2022-09-09T02:29:49;8.87;;;3.87;;
71947;SDS011;63257;55.082;38.772;2022-09-09T02:32:33;10.50;;;4.43;;
71947;SDS011;63257;55.082;38.772;2022-09-09T02:35:05;10.35;;;4.43;;
71947;SDS011;63257;55.082;38.772;2022-09-09T02:37:37;10.75;;;5.13;;
71947;SDS011;63257;55.082;38.772;2022-09-09T02:40:06;10.00;;;4.90;;
71947;SDS011;63257;55.082;38.772;2022-09-09T02:42:42;14.60;;;5.47;;
71947;SDS011;63257;55.082;38.772;2022-09-09T02:45:12;11.38;;;4.80;;
71947;SDS011;63257;55.082;38.772;2022-09-09T02:50:29;10.70;;;4.82;;
71947;SDS011;63257;55.082;38.772;2022-09-09T02:53:18;9.63;;;3.75;;
71947;SDS011;63257;55.082;38.772;2022-09-09T02:55:58;10.30;;;4.90;;
71947;SDS011;63257;55.082;38.772;2022-09-09T02:58:30;7.53;;;3.95;;
71947;SDS011;63257;55.082;38.772;2022-09-09T03:01:01;10.13;;;4.70;;
71947;SDS011;63257;55.082;38.772;2022-09-09T03:03:29;11.88;;;5.35;;
71947;SDS011;63257;55.082;38.772;2022-09-09T03:06:00;11.03;;;5.13;;
71947;SDS011;63257;55.082;38.772;2022-09-09T03:08:27;9.93;;;5.03;;
71947;SDS011;63257;55.082;38.772;2022-09-09T03:10:54;9.48;;;4.60;;
71947;SDS011;63257;55.082;38.772;2022-09-09T03:13:21;11.60;;;5.00;;
71947;SDS011;63257;55.082;38.772;2022-09-09T03:15:48;9.23;;;4.38;;
71947;SDS011;63257;55.082;38.772;2022-09-09T03:18:18;10.27;;;4.70;;
71947;SDS011;63257;55.082;38.772;2022-09-09T03:20:48;9.45;;;4.90;;
71947;SDS011;63257;55.082;38.772;2022-09-09T03:23:15;11.30;;;4.45;;
71947;SDS011;63257;55.082;38.772;2022-09-09T03:25:48;9.45;;;4.80;;
71947;SDS011;63257;55.082;38.772;2022-09-09T03:28:18;9.60;;;4.85;;
71947;SDS011;63257;55.082;38.772;2022-09-09T03:30:47;10.30;;;4.07;;
71947;SDS011;63257;55.082;38.772;2022-09-09T03:33:14;8.88;;;4.70;;
71947;SDS011;63257;55.082;38.772;2022-09-09T03:35:46;9.25;;;4.55;;
71947;SDS011;63257;55.082;38.772;2022-09-09T03:38:16;9.47;;;4.10;;
71947;SDS011;63257;55.082;38.772;2022-09-09T03:40:52;10.35;;;4.88;;
71947;SDS011;63257;55.082;38.772;2022-09-09T03:43:23;8.95;;;4.38;;
71947;SDS011;63257;55.082;38.772;2022-09-09T03:45:53;8.83;;;4.83;;
71947;SDS011;63257;55.082;38.772;2022-09-09T03:48:24;8.55;;;4.88;;
71947;SDS011;63257;55.082;38.772;2022-09-09T03:50:52;11.32;;;5.60;;
71947;SDS011;63257;55.082;38.772;2022-09-09T03:53:20;10.48;;;4.68;;
71947;SDS011;63257;55.082;38.772;2022-09-09T03:55:48;10.52;;;5.55;;
71947;SDS011;63257;55.082;38.772;2022-09-09T03:58:22;9.35;;;4.82;;
71947;SDS011;63257;55.082;38.772;2022-09-09T04:01:06;10.20;;;4.80;;
71947;SDS011;63257;55.082;38.772;2022-09-09T04:03:37;10.83;;;5.10;;
71947;SDS011;63257;55.082;38.772;2022-09-09T04:06:03;12.02;;;5.72;;
71947;SDS011;63257;55.082;38.772;2022-09-09T04:08:33;11.70;;;4.70;;
71947;SDS011;63257;55.082;38.772;2022-09-09T04:11:03;12.07;;;4.73;;
71947;SDS011;63257;55.082;38.772;2022-09-09T04:13:32;18.55;;;8.75;;
71947;SDS011;63257;55.082;38.772;2022-09-09T04:16:03;11.77;;;5.20;;
71947;SDS011;63257;55.082;38.772;2022-09-09T04:18:30;15.57;;;5.65;;
71947;SDS011;63257;55.082;38.772;2022-09-09T04:20:58;13.35;;;6.03;;
71947;SDS011;63257;55.082;38.772;2022-09-09T04:23:27;9.43;;;4.45;;
71947;SDS011;63257;55.082;38.772;2022-09-09T04:25:58;14.20;;;6.93;;
71947;SDS011;63257;55.082;38.772;2022-09-09T04:28:27;10.83;;;5.40;;
71947;SDS011;63257;55.082;38.772;2022-09-09T04:30:54;16.55;;;5.80;;
71947;SDS011;63257;55.082;38.772;2022-09-09T04:33:25;11.63;;;6.18;;
71947;SDS011;63257;55.082;38.772;2022-09-09T04:35:52;13.57;;;6.13;;
71947;SDS011;63257;55.082;38.772;2022-09-09T04:38:21;12.23;;;6.03;;
71947;SDS011;63257;55.082;38.772;2022-09-09T04:40:51;13.05;;;6.07;;
71947;SDS011;63257;55.082;38.772;2022-09-09T04:43:20;11.20;;;6.00;;
71947;SDS011;63257;55.082;38.772;2022-09-09T04:45:48;13.05;;;4.80;;
71947;SDS011;63257;55.082;38.772;2022-09-09T04:48:14;9.20;;;4.05;;
71947;SDS011;63257;55.082;38.772;2022-09-09T04:50:41;7.78;;;3.15;;
71947;SDS011;63257;55.082;38.772;2022-09-09T04:53:10;8.50;;;4.00;;
71947;SDS011;63257;55.082;38.772;2022-09-09T04:55:37;6.25;;;2.60;;
71947;SDS011;63257;55.082;38.772;2022-09-09T04:58:04;6.95;;;2.72;;
71947;SDS011;63257;55.082;38.772;2022-09-09T05:00:31;7.57;;;3.00;;
71947;SDS011;63257;55.082;38.772;2022-09-09T05:02:57;9.10;;;2.78;;
71947;SDS011;63257;55.082;38.772;2022-09-09T05:05:28;6.20;;;2.50;;
71947;SDS011;63257;55.082;38.772;2022-09-09T05:07:54;6.30;;;2.38;;
71947;SDS011;63257;55.082;38.772;2022-09-09T05:10:20;5.75;;;2.35;;
71947;SDS011;63257;55.082;38.772;2022-09-09T05:12:56;6.00;;;2.13;;
71947;SDS011;63257;55.082;38.772;2022-09-09T05:15:25;5.40;;;2.10;;
71947;SDS011;63257;55.082;38.772;2022-09-09T05:17:51;4.63;;;2.03;;
71947;SDS011;63257;55.082;38.772;2022-09-09T05:20:22;6.45;;;1.90;;
71947;SDS011;63257;55.082;38.772;2022-09-09T05:22:47;4.70;;;1.73;;
71947;SDS011;63257;55.082;38.772;2022-09-09T05:25:14;4.07;;;1.80;;
71947;SDS011;63257;55.082;38.772;2022-09-09T05:27:41;5.30;;;1.70;;
71947;SDS011;63257;55.082;38.772;2022-09-09T05:30:07;4.45;;;1.63;;
71947;SDS011;63257;55.082;38.772;2022-09-09T05:32:33;21.37;;;8.60;;
71947;SDS011;63257;55.082;38.772;2022-09-09T05:35:01;4.35;;;1.88;;
71947;SDS011;63257;55.082;38.772;2022-09-09T05:37:28;5.25;;;1.60;;
71947;SDS011;63257;55.082;38.772;2022-09-09T05:39:55;5.67;;;1.60;;
71947;SDS011;63257;55.082;38.772;2022-09-09T05:42:21;5.97;;;1.80;;
71947;SDS011;63257;55.082;38.772;2022-09-09T05:44:47;5.00;;;1.55;;
71947;SDS011;63257;55.082;38.772;2022-09-09T05:47:13;4.00;;;1.30;;
71947;SDS011;63257;55.082;38.772;2022-09-09T05:49:41;3.80;;;1.20;;
71947;SDS011;63257;55.082;38.772;2022-09-09T05:52:07;4.53;;;1.57;;
71947;SDS011;63257;55.082;38.772;2022-09-09T05:54:33;7.43;;;2.78;;
71947;SDS011;63257;55.082;38.772;2022-09-09T05:57:00;8.05;;;2.00;;
71947;SDS011;63257;55.082;38.772;2022-09-09T05:59:26;6.10;;;1.90;;
71947;SDS011;63257;55.082;38.772;2022-09-09T06:01:55;9.45;;;4.15;;
71947;SDS011;63257;55.082;38.772;2022-09-09T06:04:30;5.40;;;1.60;;
71947;SDS011;63257;55.082;38.772;2022-09-09T06:06:59;3.92;;;1.40;;
71947;SDS011;63257;55.082;38.772;2022-09-09T06:09:25;3.70;;;1.20;;
71947;SDS011;63257;55.082;38.772;2022-09-09T06:11:51;3.75;;;1.30;;
71947;SDS011;63257;55.082;38.772;2022-09-09T06:14:19;5.55;;;2.38;;
71947;SDS011;63257;55.082;38.772;2022-09-09T06:16:48;6.53;;;3.30;;
71947;SDS011;63257;55.082;38.772;2022-09-09T06:19:18;3.10;;;1.20;;
71947;SDS011;63257;55.082;38.772;2022-09-09T06:21:46;4.53;;;1.00;;
71947;SDS011;63257;55.082;38.772;2022-09-09T06:24:13;3.25;;;1.10;;
71947;SDS011;63257;55.082;38.772;2022-09-09T06:26:43;4.43;;;1.10;;
71947;SDS011;63257;55.082;38.772;2022-09-09T06:29:14;3.78;;;1.30;;
71947;SDS011;63257;55.082;38.772;2022-09-09T06:31:41;3.55;;;1.20;;
71947;SDS011;63257;55.082;38.772;2022-09-09T06:34:17;6.10;;;1.48;;
71947;SDS011;63257;55.082;38.772;2022-09-09T06:36:48;4.23;;;1.20;;
71947;SDS011;63257;55.082;38.772;2022-09-09T06:39:15;2.90;;;0.90;;
71947;SDS011;63257;55.082;38.772;2022-09-09T06:41:42;4.25;;;1.40;;
71947;SDS011;63257;55.082;38.772;2022-09-09T06:44:21;3.00;;;1.20;;
71947;SDS011;63257;55.082;38.772;2022-09-09T06:46:48;3.10;;;0.93;;
71947;SDS011;63257;55.082;38.772;2022-09-09T06:49:15;3.70;;;1.37;;
71947;SDS011;63257;55.082;38.772;2022-09-09T06:51:41;3.35;;;1.10;;
71947;SDS011;63257;55.082;38.772;2022-09-09T06:54:11;3.70;;;1.35;;
71947;SDS011;63257;55.082;38.772;2022-09-09T06:56:41;4.38;;;1.02;;
71947;SDS011;63257;55.082;38.772;2022-09-09T06:59:21;2.83;;;0.90;;
71947;SDS011;63257;55.082;38.772;2022-09-09T07:01:47;3.10;;;1.03;;
71947;SDS011;63257;55.082;38.772;2022-09-09T07:04:14;4.70;;;1.35;;
71947;SDS011;63257;55.082;38.772;2022-09-09T07:06:44;4.95;;;1.17;;
71947;SDS011;63257;55.082;38.772;2022-09-09T07:09:15;2.92;;;1.08;;
71947;SDS011;63257;55.082;38.772;2022-09-09T07:11:49;2.80;;;1.00;;
71947;SDS011;63257;55.082;38.772;2022-09-09T07:14:21;3.20;;;1.10;;
71947;SDS011;63257;55.082;38.772;2022-09-09T07:16:53;3.92;;;1.20;;
71947;SDS011;63257;55.082;38.772;2022-09-09T07:19:19;5.60;;;1.30;;
71947;SDS011;63257;55.082;38.772;2022-09-09T07:21:50;3.10;;;1.05;;
71947;SDS011;63257;55.082;38.772;2022-09-09T07:24:18;3.25;;;1.35;;
71947;SDS011;63257;55.082;38.772;2022-09-09T07:26:45;3.70;;;1.50;;
71947;SDS011;63257;55.082;38.772;2022-09-09T07:29:12;4.07;;;1.30;;
71947;SDS011;63257;55.082;38.772;2022-09-09T07:31:41;2.92;;;1.23;;
71947;SDS011;63257;55.082;38.772;2022-09-09T07:34:12;2.80;;;1.00;;
71947;SDS011;63257;55.082;38.772;2022-09-09T07:36:39;3.10;;;1.10;;
71947;SDS011;63257;55.082;38.772;2022-09-09T07:39:09;3.10;;;1.10;;
71947;SDS011;63257;55.082;38.772;2022-09-09T07:41:41;3.67;;;0.90;;
71947;SDS011;63257;55.082;38.772;2022-09-09T07:44:13;3.00;;;1.20;;
71947;SDS011;63257;55.082;38.772;2022-09-09T07:46:43;4.63;;;1.20;;
71947;SDS011;63257;55.082;38.772;2022-09-09T07:49:14;3.28;;;1.00;;
71947;SDS011;63257;55.082;38.772;2022-09-09T07:51:42;3.33;;;1.10;;
71947;SDS011;63257;55.082;38.772;2022-09-09T07:54:11;2.95;;;1.10;;
71947;SDS011;63257;55.082;38.772;2022-09-09T07:56:42;4.53;;;1.20;;
71947;SDS011;63257;55.082;38.772;2022-09-09T07:59:10;3.08;;;1.10;;
71947;SDS011;63257;55.082;38.772;2022-09-09T08:01:44;3.28;;;1.10;;
71947;SDS011;63257;55.082;38.772;2022-09-09T08:04:19;2.90;;;1.17;;
71947;SDS011;63257;55.082;38.772;2022-09-09T08:06:48;2.95;;;1.10;;
71947;SDS011;63257;55.082;38.772;2022-09-09T08:09:20;4.07;;;1.17;;
71947;SDS011;63257;55.082;38.772;2022-09-09T08:11:50;3.35;;;1.20;;
71947;SDS011;63257;55.082;38.772;2022-09-09T08:14:16;3.70;;;1.10;;
71947;SDS011;63257;55.082;38.772;2022-09-09T08:16:46;3.53;;;1.10;;
71947;SDS011;63257;55.082;38.772;2022-09-09T08:19:16;2.70;;;0.90;;
71947;SDS011;63257;55.082;38.772;2022-09-09T08:21:44;5.03;;;1.00;;
71947;SDS011;63257;55.082;38.772;2022-09-09T08:24:11;2.90;;;0.90;;
71947;SDS011;63257;55.082;38.772;2022-09-09T08:26:38;3.42;;;1.05;;
71947;SDS011;63257;55.082;38.772;2022-09-09T08:29:09;3.10;;;1.00;;
71947;SDS011;63257;55.082;38.772;2022-09-09T08:31:38;2.80;;;1.00;;
71947;SDS011;63257;55.082;38.772;2022-09-09T08:34:09;3.00;;;1.10;;
71947;SDS011;63257;55.082;38.772;2022-09-09T08:36:38;3.05;;;1.20;;
71947;SDS011;63257;55.082;38.772;2022-09-09T08:39:09;2.90;;;1.10;;
71947;SDS011;63257;55.082;38.772;2022-09-09T08:52:09;2.80;;;1.10;;
71947;SDS011;63257;55.082;38.772;2022-09-09T08:54:42;4.22;;;1.20;;
71947;SDS011;63257;55.082;38.772;2022-09-09T08:57:11;3.00;;;1.00;;
71947;SDS011;63257;55.082;38.772;2022-09-09T08:59:43;2.83;;;1.00;;
71947;SDS011;63257;55.082;38.772;2022-09-09T09:04:52;2.90;;;0.98;;
71947;SDS011;63257;55.082;38.772;2022-09-09T09:12:35;4.20;;;1.40;;
71947;SDS011;63257;55.082;38.772;2022-09-09T09:15:11;4.70;;;1.20;;
71947;SDS011;63257;55.082;38.772;2022-09-09T09:17:43;3.72;;;1.48;;
71947;SDS011;63257;55.082;38.772;2022-09-09T09:20:17;3.60;;;1.10;;
71947;SDS011;63257;55.082;38.772;2022-09-09T09:22:50;3.58;;;1.30;;
71947;SDS011;63257;55.082;38.772;2022-09-09T09:25:31;2.88;;;1.10;;
71947;SDS011;63257;55.082;38.772;2022-09-09T09:30:39;3.10;;;0.85;;
71947;SDS011;63257;55.082;38.772;2022-09-09T09:33:15;2.97;;;0.88;;
71947;SDS011;63257;55.082;38.772;2022-09-09T09:35:50;3.65;;;1.00;;
71947;SDS011;63257;55.082;38.772;2022-09-09T09:38:18;2.85;;;1.00;;
71947;SDS011;63257;55.082;38.772;2022-09-09T09:40:56;4.50;;;1.00;;
71947;SDS011;63257;55.082;38.772;2022-09-09T09:43:26;6.53;;;1.00;;
71947;SDS011;63257;55.082;38.772;2022-09-09T09:45:59;3.03;;;1.10;;
71947;SDS011;63257;55.082;38.772;2022-09-09T09:48:26;3.00;;;1.00;;
71947;SDS011;63257;55.082;38.772;2022-09-09T09:53:25;4.10;;;1.10;;
71947;SDS011;63257;55.082;38.772;2022-09-09T09:55:58;4.95;;;1.30;;
71947;SDS011;63257;55.082;38.772;2022-09-09T09:58:30;3.10;;;1.17;;
71947;SDS011;63257;55.082;38.772;2022-09-09T10:01:00;3.80;;;1.02;;
71947;SDS011;63257;55.082;38.772;2022-09-09T10:03:33;4.07;;;1.20;;
71947;SDS011;63257;55.082;38.772;2022-09-09T10:06:06;3.90;;;1.10;;
71947;SDS011;63257;55.082;38.772;2022-09-09T10:08:34;4.05;;;1.30;;
71947;SDS011;63257;55.082;38.772;2022-09-09T10:14:20;3.05;;;1.17;;
71947;SDS011;63257;55.082;38.772;2022-09-09T10:19:41;3.40;;;1.20;;
71947;SDS011;63257;55.082;38.772;2022-09-09T10:54:23;3.20;;;1.40;;
71947;SDS011;63257;55.082;38.772;2022-09-09T11:00:18;3.73;;;1.20;;
71947;SDS011;63257;55.082;38.772;2022-09-09T11:02:47;4.03;;;1.00;;
71947;SDS011;63257;55.082;38.772;2022-09-09T11:05:24;4.53;;;1.15;;
71947;SDS011;63257;55.082;38.772;2022-09-09T11:07:59;3.03;;;1.20;;
71947;SDS011;63257;55.082;38.772;2022-09-09T11:16:41;4.25;;;1.35;;
71947;SDS011;63257;55.082;38.772;2022-09-09T11:21:49;3.13;;;1.30;;
71947;SDS011;63257;55.082;38.772;2022-09-09T11:24:28;3.88;;;1.70;;
71947;SDS011;63257;55.082;38.772;2022-09-09T11:26:56;3.23;;;1.53;;
71947;SDS011;63257;55.082;38.772;2022-09-09T11:40:23;4.10;;;1.20;;
71947;SDS011;63257;55.082;38.772;2022-09-09T11:43:03;3.55;;;2.03;;
71947;SDS011;63257;55.082;38.772;2022-09-09T11:45:39;4.25;;;2.20;;
71947;SDS011;63257;55.082;38.772;2022-09-09T11:48:22;3.65;;;1.60;;
71947;SDS011;63257;55.082;38.772;2022-09-09T11:53:50;4.40;;;1.87;;
71947;SDS011;63257;55.082;38.772;2022-09-09T11:56:41;4.68;;;1.90;;
71947;SDS011;63257;55.082;38.772;2022-09-09T11:59:20;4.55;;;2.03;;
71947;SDS011;63257;55.082;38.772;2022-09-09T12:01:50;3.20;;;1.80;;
71947;SDS011;63257;55.082;38.772;2022-09-09T12:04:33;4.55;;;2.10;;
71947;SDS011;63257;55.082;38.772;2022-09-09T12:07:21;3.00;;;1.40;;
71947;SDS011;63257;55.082;38.772;2022-09-09T12:10:01;3.00;;;1.05;;
71947;SDS011;63257;55.082;38.772;2022-09-09T12:12:37;4.35;;;1.30;;
71947;SDS011;63257;55.082;38.772;2022-09-09T12:17:43;5.05;;;1.80;;
71947;SDS011;63257;55.082;38.772;2022-09-09T12:25:31;3.95;;;2.10;;
71947;SDS011;63257;55.082;38.772;2022-09-09T12:28:15;4.22;;;1.60;;
71947;SDS011;63257;55.082;38.772;2022-09-09T12:30:49;3.10;;;1.80;;
71947;SDS011;63257;55.082;38.772;2022-09-09T12:33:23;4.27;;;1.50;;
71947;SDS011;63257;55.082;38.772;2022-09-09T12:35:52;4.07;;;1.73;;
71947;SDS011;63257;55.082;38.772;2022-09-09T12:38:36;3.50;;;1.20;;
71947;SDS011;63257;55.082;38.772;2022-09-09T12:41:05;3.65;;;1.30;;
71947;SDS011;63257;55.082;38.772;2022-09-09T12:43:31;3.40;;;1.70;;
71947;SDS011;63257;55.082;38.772;2022-09-09T12:46:01;3.73;;;1.30;;
71947;SDS011;63257;55.082;38.772;2022-09-09T12:51:02;3.92;;;1.50;;
71947;SDS011;63257;55.082;38.772;2022-09-09T12:55:58;5.27;;;2.37;;
71947;SDS011;63257;55.082;38.772;2022-09-09T12:58:28;4.68;;;2.40;;
71947;SDS011;63257;55.082;38.772;2022-09-09T13:00:58;3.60;;;1.80;;
71947;SDS011;63257;55.082;38.772;2022-09-09T13:03:26;4.95;;;1.45;;
71947;SDS011;63257;55.082;38.772;2022-09-09T13:05:52;4.13;;;1.20;;
71947;SDS011;63257;55.082;38.772;2022-09-09T13:08:26;4.72;;;1.70;;
71947;SDS011;63257;55.082;38.772;2022-09-09T13:13:43;3.75;;;2.25;;
71947;SDS011;63257;55.082;38.772;2022-09-09T13:18:51;3.50;;;1.40;;
71947;SDS011;63257;55.082;38.772;2022-09-09T13:21:18;4.35;;;1.40;;
71947;SDS011;63257;55.082;38.772;2022-09-09T13:23:48;4.03;;;1.27;;
71947;SDS011;63257;55.082;38.772;2022-09-09T13:26:20;4.13;;;1.33;;
71947;SDS011;63257;55.082;38.772;2022-09-09T13:28:52;4.75;;;2.30;;
71947;SDS011;63257;55.082;38.772;2022-09-09T13:31:28;4.37;;;2.70;;
71947;SDS011;63257;55.082;38.772;2022-09-09T13:33:57;5.22;;;2.10;;
71947;SDS011;63257;55.082;38.772;2022-09-09T13:36:29;3.72;;;2.00;;
71947;SDS011;63257;55.082;38.772;2022-09-09T13:38:58;4.13;;;2.20;;
71947;SDS011;63257;55.082;38.772;2022-09-09T13:41:28;3.72;;;2.00;;
71947;SDS011;63257;55.082;38.772;2022-09-09T13:43:55;3.83;;;2.10;;
71947;SDS011;63257;55.082;38.772;2022-09-09T13:49:02;4.18;;;2.00;;
71947;SDS011;63257;55.082;38.772;2022-09-09T13:51:43;4.20;;;2.28;;
71947;SDS011;63257;55.082;38.772;2022-09-09T13:54:28;4.22;;;2.20;;
71947;SDS011;63257;55.082;38.772;2022-09-09T13:56:56;4.23;;;2.10;;
71947;SDS011;63257;55.082;38.772;2022-09-09T13:59:25;4.85;;;2.20;;
71947;SDS011;63257;55.082;38.772;2022-09-09T14:01:52;4.20;;;1.92;;
71947;SDS011;63257;55.082;38.772;2022-09-09T14:04:18;3.50;;;1.48;;
71947;SDS011;63257;55.082;38.772;2022-09-09T14:06:48;4.90;;;2.55;;
71947;SDS011;63257;55.082;38.772;2022-09-09T14:09:16;4.73;;;2.10;;
71947;SDS011;63257;55.082;38.772;2022-09-09T14:11:43;4.43;;;2.30;;
71947;SDS011;63257;55.082;38.772;2022-09-09T14:14:13;4.38;;;2.20;;
71947;SDS011;63257;55.082;38.772;2022-09-09T14:16:40;4.45;;;2.33;;
71947;SDS011;63257;55.082;38.772;2022-09-09T14:19:07;4.32;;;2.10;;
71947;SDS011;63257;55.082;38.772;2022-09-09T14:21:34;3.47;;;1.60;;
71947;SDS011;63257;55.082;38.772;2022-09-09T14:24:02;4.10;;;2.13;;
71947;SDS011;63257;55.082;38.772;2022-09-09T14:26:31;4.68;;;1.13;;
71947;SDS011;63257;55.082;38.772;2022-09-09T14:28:57;3.92;;;1.20;;
71947;SDS011;63257;55.082;38.772;2022-09-09T14:31:23;3.27;;;1.00;;
71947;SDS011;63257;55.082;38.772;2022-09-09T14:33:50;3.15;;;1.00;;
71947;SDS011;63257;55.082;38.772;2022-09-09T14:36:18;2.80;;;0.90;;
71947;SDS011;63257;55.082;38.772;2022-09-09T14:38:44;3.45;;;1.10;;
71947;SDS011;63257;55.082;38.772;2022-09-09T14:41:11;3.87;;;1.90;;
71947;SDS011;63257;55.082;38.772;2022-09-09T14:43:38;4.03;;;1.98;;
71947;SDS011;63257;55.082;38.772;2022-09-09T14:46:05;3.55;;;1.70;;
71947;SDS011;63257;55.082;38.772;2022-09-09T14:48:34;4.70;;;2.30;;
71947;SDS011;63257;55.082;38.772;2022-09-09T14:51:07;5.22;;;1.80;;
71947;SDS011;63257;55.082;38.772;2022-09-09T14:53:34;4.47;;;2.10;;
71947;SDS011;63257;55.082;38.772;2022-09-09T14:56:03;4.38;;;2.10;;
71947;SDS011;63257;55.082;38.772;2022-09-09T14:58:35;6.38;;;2.13;;
71947;SDS011;63257;55.082;38.772;2022-09-09T15:01:04;6.35;;;2.70;;
71947;SDS011;63257;55.082;38.772;2022-09-09T15:03:30;7.70;;;2.60;;
71947;SDS011;63257;55.082;38.772;2022-09-09T15:05:56;5.10;;;2.40;;
71947;SDS011;63257;55.082;38.772;2022-09-09T15:08:24;4.47;;;2.13;;
71947;SDS011;63257;55.082;38.772;2022-09-09T15:10:58;4.25;;;1.98;;
71947;SDS011;63257;55.082;38.772;2022-09-09T15:13:26;4.70;;;2.42;;
71947;SDS011;63257;55.082;38.772;2022-09-09T15:15:52;5.17;;;2.10;;
71947;SDS011;63257;55.082;38.772;2022-09-09T15:18:19;4.50;;;2.00;;
71947;SDS011;63257;55.082;38.772;2022-09-09T15:20:46;4.22;;;1.80;;
71947;SDS011;63257;55.082;38.772;2022-09-09T15:23:13;4.40;;;2.10;;
71947;SDS011;63257;55.082;38.772;2022-09-09T15:25:52;7.78;;;2.20;;
71947;SDS011;63257;55.082;38.772;2022-09-09T15:28:20;4.73;;;1.90;;
71947;SDS011;63257;55.082;38.772;2022-09-09T15:30:47;7.18;;;2.55;;
71947;SDS011;63257;55.082;38.772;2022-09-09T15:33:14;5.45;;;2.58;;
71947;SDS011;63257;55.082;38.772;2022-09-09T15:35:42;4.18;;;2.00;;
71947;SDS011;63257;55.082;38.772;2022-09-09T15:38:08;4.37;;;1.80;;
71947;SDS011;63257;55.082;38.772;2022-09-09T15:40:34;4.72;;;1.65;;
71947;SDS011;63257;55.082;38.772;2022-09-09T15:43:01;5.47;;;1.65;;
71947;SDS011;63257;55.082;38.772;2022-09-09T15:45:28;6.35;;;2.05;;
71947;SDS011;63257;55.082;38.772;2022-09-09T15:47:59;4.60;;;1.92;;
71947;SDS011;63257;55.082;38.772;2022-09-09T15:50:26;5.33;;;2.27;;
71947;SDS011;63257;55.082;38.772;2022-09-09T15:52:52;5.22;;;1.90;;
71947;SDS011;63257;55.082;38.772;2022-09-09T15:55:18;6.63;;;1.98;;
71947;SDS011;63257;55.082;38.772;2022-09-09T15:57:50;6.03;;;1.70;;
71947;SDS011;63257;55.082;38.772;2022-09-09T16:00:18;5.18;;;2.00;;
71947;SDS011;63257;55.082;38.772;2022-09-09T16:02:48;8.47;;;2.30;;
71947;SDS011;63257;55.082;38.772;2022-09-09T16:05:14;4.57;;;1.90;;
71947;SDS011;63257;55.082;38.772;2022-09-09T16:07:40;5.68;;;2.28;;
71947;SDS011;63257;55.082;38.772;2022-09-09T16:10:09;4.88;;;1.90;;
71947;SDS011;63257;55.082;38.772;2022-09-09T16:12:36;6.00;;;2.08;;
71947;SDS011;63257;55.082;38.772;2022-09-09T16:15:02;7.97;;;2.10;;
71947;SDS011;63257;55.082;38.772;2022-09-09T16:17:29;7.15;;;2.42;;
71947;SDS011;63257;55.082;38.772;2022-09-09T16:19:55;10.77;;;2.53;;
71947;SDS011;63257;55.082;38.772;2022-09-09T16:22:23;7.80;;;2.40;;
71947;SDS011;63257;55.082;38.772;2022-09-09T16:24:50;5.93;;;2.10;;
71947;SDS011;63257;55.082;38.772;2022-09-09T16:27:16;7.60;;;2.63;;
71947;SDS011;63257;55.082;38.772;2022-09-09T16:29:41;6.90;;;2.37;;
71947;SDS011;63257;55.082;38.772;2022-09-09T16:32:07;5.47;;;2.35;;
71947;SDS011;63257;55.082;38.772;2022-09-09T16:34:33;8.50;;;2.55;;
71947;SDS011;63257;55.082;38.772;2022-09-09T16:36:59;7.63;;;2.70;;
71947;SDS011;63257;55.082;38.772;2022-09-09T16:39:27;7.13;;;2.65;;
71947;SDS011;63257;55.082;38.772;2022-09-09T16:41:53;8.55;;;2.78;;
71947;SDS011;63257;55.082;38.772;2022-09-09T16:44:19;8.95;;;3.20;;
71947;SDS011;63257;55.082;38.772;2022-09-09T16:46:45;7.45;;;3.40;;
71947;SDS011;63257;55.082;38.772;2022-09-09T16:49:14;7.93;;;3.00;;
71947;SDS011;63257;55.082;38.772;2022-09-09T16:51:43;10.40;;;3.60;;
71947;SDS011;63257;55.082;38.772;2022-09-09T16:54:12;6.20;;;3.10;;
71947;SDS011;63257;55.082;38.772;2022-09-09T16:56:40;10.88;;;3.60;;
71947;SDS011;63257;55.082;38.772;2022-09-09T16:59:08;9.38;;;3.88;;
71947;SDS011;63257;55.082;38.772;2022-09-09T17:01:36;11.57;;;3.78;;
71947;SDS011;63257;55.082;38.772;2022-09-09T17:04:15;10.38;;;4.43;;
71947;SDS011;63257;55.082;38.772;2022-09-09T17:06:48;9.93;;;4.30;;
71947;SDS011;63257;55.082;38.772;2022-09-09T17:09:14;12.05;;;5.70;;
71947;SDS011;63257;55.082;38.772;2022-09-09T17:11:41;12.60;;;6.18;;